sensor_id;sensor_type;location;lat;lon;timestamp;temperature;humidity
70214;DHT22;60138;55.808;37.078;2023-03-01T00:01:20;-5.81;59.61
70214;DHT22;60138;55.808;37.078;2023-03-01T00:03:46;-5.88;58.64
70214;DHT22;60138;55.808;37.078;2023-03-01T00:06:12;-5.89;58.90
70214;DHT22;60138;55.808;37.078;2023-03-01T00:08:38;-5.94;58.24
70214;DHT22;60138;55.808;37.078;2023-03-01T00:11:08;-5.96;57.48
70214;DHT22;60138;55.808;37.078;2023-03-01T00:13:36;-5.85;60.19
70214;DHT22;60138;55.808;37.078;2023-03-01T00:16:06;-5.82;57.69
70214;DHT22;60138;55.808;37.078;2023-03-01T00:18:32;-5.78;57.23
70214;DHT22;60138;55.808;37.078;2023-03-01T00:20:58;-5.72;60.62
70214;DHT22;60138;55.808;37.078;2023-03-01T00:23:24;-5.73;58.38
70214;DHT22;60138;55.808;37.078;2023-03-01T00:25:50;-5.71;57.88
70214;DHT22;60138;55.808;37.078;2023-03-01T00:28:16;-5.69;57.22
70214;DHT22;60138;55.808;37.078;2023-03-01T00:30:42;-5.65;59.54
70214;DHT22;60138;55.808;37.078;2023-03-01T00:33:08;-5.63;58.59
70214;DHT22;60138;55.808;37.078;2023-03-01T00:35:34;-5.58;58.58
70214;DHT22;60138;55.808;37.078;2023-03-01T00:38:01;-5.59;56.86
70214;DHT22;60138;55.808;37.078;2023-03-01T00:40:28;-5.61;57.15
70214;DHT22;60138;55.808;37.078;2023-03-01T00:42:55;-5.61;56.97
70214;DHT22;60138;55.808;37.078;2023-03-01T00:45:21;-5.57;58.00
70214;DHT22;60138;55.808;37.078;2023-03-01T00:47:47;-5.59;57.77
70214;DHT22;60138;55.808;37.078;2023-03-01T00:50:13;-5.58;60.21
70214;DHT22;60138;55.808;37.078;2023-03-01T00:52:39;-5.68;58.32
70214;DHT22;60138;55.808;37.078;2023-03-01T00:55:06;-5.71;58.36
70214;DHT22;60138;55.808;37.078;2023-03-01T00:57:33;-5.65;60.02
70214;DHT22;60138;55.808;37.078;2023-03-01T00:59:59;-5.67;59.74
70214;DHT22;60138;55.808;37.078;2023-03-01T01:02:25;-5.65;60.93
70214;DHT22;60138;55.808;37.078;2023-03-01T01:04:51;-5.72;59.97
70214;DHT22;60138;55.808;37.078;2023-03-01T01:07:17;-5.71;60.68
70214;DHT22;60138;55.808;37.078;2023-03-01T01:09:43;-5.77;59.78
70214;DHT22;60138;55.808;37.078;2023-03-01T01:12:09;-5.78;60.76
70214;DHT22;60138;55.808;37.078;2023-03-01T01:14:35;-5.76;61.75
70214;DHT22;60138;55.808;37.078;2023-03-01T01:17:01;-5.83;60.49
70214;DHT22;60138;55.808;37.078;2023-03-01T01:19:26;-5.88;60.40
70214;DHT22;60138;55.808;37.078;2023-03-01T01:21:53;-5.97;60.51
70214;DHT22;60138;55.808;37.078;2023-03-01T01:24:19;-5.93;61.48
70214;DHT22;60138;55.808;37.078;2023-03-01T01:26:45;-6.01;61.00
70214;DHT22;60138;55.808;37.078;2023-03-01T01:29:12;-5.99;61.27
70214;DHT22;60138;55.808;37.078;2023-03-01T01:31:40;-6.02;60.96
70214;DHT22;60138;55.808;37.078;2023-03-01T01:34:08;-5.97;61.56
70214;DHT22;60138;55.808;37.078;2023-03-01T01:36:37;-5.97;60.75
70214;DHT22;60138;55.808;37.078;2023-03-01T01:39:03;-5.91;62.10
70214;DHT22;60138;55.808;37.078;2023-03-01T01:41:29;-5.97;61.62
70214;DHT22;60138;55.808;37.078;2023-03-01T01:44:20;-6.03;61.94
70214;DHT22;60138;55.808;37.078;2023-03-01T01:46:57;-6.09;61.36
70214;DHT22;60138;55.808;37.078;2023-03-01T01:49:28;-6.04;61.67
70214;DHT22;60138;55.808;37.078;2023-03-01T01:52:18;-5.99;61.99
70214;DHT22;60138;55.808;37.078;2023-03-01T01:55:24;-5.93;62.38
70214;DHT22;60138;55.808;37.078;2023-03-01T01:57:48;-5.86;62.91
70214;DHT22;60138;55.808;37.078;2023-03-01T02:00:18;-5.86;62.75
70214;DHT22;60138;55.808;37.078;2023-03-01T02:02:46;-5.89;62.31
70214;DHT22;60138;55.808;37.078;2023-03-01T02:05:20;-5.92;62.76
70214;DHT22;60138;55.808;37.078;2023-03-01T02:07:48;-5.93;62.98
70214;DHT22;60138;55.808;37.078;2023-03-01T02:10:19;-6.02;62.54
70214;DHT22;60138;55.808;37.078;2023-03-01T02:12:45;-6.07;62.60
70214;DHT22;60138;55.808;37.078;2023-03-01T02:15:33;-6.03;63.14
70214;DHT22;60138;55.808;37.078;2023-03-01T02:17:59;-6.11;62.75
70214;DHT22;60138;55.808;37.078;2023-03-01T02:22:52;-6.22;63.12
70214;DHT22;60138;55.808;37.078;2023-03-01T02:30:35;-6.33;63.38
70214;DHT22;60138;55.808;37.078;2023-03-01T02:33:03;-6.37;63.63
70214;DHT22;60138;55.808;37.078;2023-03-01T02:35:33;-6.39;63.80
70214;DHT22;60138;55.808;37.078;2023-03-01T02:38:01;-6.43;63.95
70214;DHT22;60138;55.808;37.078;2023-03-01T02:40:31;-6.42;63.78
70214;DHT22;60138;55.808;37.078;2023-03-01T02:42:59;-6.48;63.87
70214;DHT22;60138;55.808;37.078;2023-03-01T02:45:26;-6.48;63.80
70214;DHT22;60138;55.808;37.078;2023-03-01T02:47:57;-6.52;63.92
70214;DHT22;60138;55.808;37.078;2023-03-01T02:53:04;-6.55;64.22
70214;DHT22;60138;55.808;37.078;2023-03-01T02:55:33;-6.55;64.19
70214;DHT22;60138;55.808;37.078;2023-03-01T02:58:02;-6.59;64.31
70214;DHT22;60138;55.808;37.078;2023-03-01T03:00:42;-6.66;64.43
70214;DHT22;60138;55.808;37.078;2023-03-01T03:03:08;-6.71;64.46
70214;DHT22;60138;55.808;37.078;2023-03-01T03:05:35;-6.74;64.65
70214;DHT22;60138;55.808;37.078;2023-03-01T03:08:01;-6.71;64.71
70214;DHT22;60138;55.808;37.078;2023-03-01T03:10:34;-6.72;64.52
70214;DHT22;60138;55.808;37.078;2023-03-01T03:13:05;-6.72;64.55
70214;DHT22;60138;55.808;37.078;2023-03-01T03:15:36;-6.75;64.69
70214;DHT22;60138;55.808;37.078;2023-03-01T03:18:03;-6.77;64.67
70214;DHT22;60138;55.808;37.078;2023-03-01T03:20:30;-6.80;64.87
70214;DHT22;60138;55.808;37.078;2023-03-01T03:22:57;-6.83;64.95
70214;DHT22;60138;55.808;37.078;2023-03-01T03:25:24;-6.85;64.98
70214;DHT22;60138;55.808;37.078;2023-03-01T03:27:51;-6.88;65.01
70214;DHT22;60138;55.808;37.078;2023-03-01T03:30:18;-6.90;65.24
70214;DHT22;60138;55.808;37.078;2023-03-01T03:32:46;-6.91;65.10
70214;DHT22;60138;55.808;37.078;2023-03-01T03:35:12;-6.96;65.52
70214;DHT22;60138;55.808;37.078;2023-03-01T03:37:39;-6.97;65.66
70214;DHT22;60138;55.808;37.078;2023-03-01T03:40:05;-6.96;65.40
70214;DHT22;60138;55.808;37.078;2023-03-01T03:42:31;-6.97;65.44
70214;DHT22;60138;55.808;37.078;2023-03-01T03:44:57;-7.00;65.28
70214;DHT22;60138;55.808;37.078;2023-03-01T03:47:22;-6.97;65.01
70214;DHT22;60138;55.808;37.078;2023-03-01T03:49:48;-6.97;65.27
70214;DHT22;60138;55.808;37.078;2023-03-01T03:52:13;-7.01;65.82
70214;DHT22;60138;55.808;37.078;2023-03-01T03:54:40;-7.00;65.62
70214;DHT22;60138;55.808;37.078;2023-03-01T03:57:06;-6.98;65.72
70214;DHT22;60138;55.808;37.078;2023-03-01T03:59:32;-7.00;65.97
70214;DHT22;60138;55.808;37.078;2023-03-01T04:01:58;-7.03;66.01
70214;DHT22;60138;55.808;37.078;2023-03-01T04:04:26;-7.03;66.14
70214;DHT22;60138;55.808;37.078;2023-03-01T04:06:52;-7.01;65.67
70214;DHT22;60138;55.808;37.078;2023-03-01T04:09:17;-7.04;65.76
70214;DHT22;60138;55.808;37.078;2023-03-01T04:11:46;-7.11;66.51
70214;DHT22;60138;55.808;37.078;2023-03-01T04:14:12;-7.08;66.06
70214;DHT22;60138;55.808;37.078;2023-03-01T04:16:37;-7.09;66.02
70214;DHT22;60138;55.808;37.078;2023-03-01T04:19:03;-7.13;65.77
70214;DHT22;60138;55.808;37.078;2023-03-01T04:21:28;-7.18;65.98
70214;DHT22;60138;55.808;37.078;2023-03-01T04:23:54;-7.17;65.90
70214;DHT22;60138;55.808;37.078;2023-03-01T04:26:20;-7.21;66.01
70214;DHT22;60138;55.808;37.078;2023-03-01T04:28:46;-7.21;65.81
70214;DHT22;60138;55.808;37.078;2023-03-01T04:31:14;-7.23;66.01
70214;DHT22;60138;55.808;37.078;2023-03-01T04:33:45;-7.25;65.82
70214;DHT22;60138;55.808;37.078;2023-03-01T04:36:12;-7.24;66.02
70214;DHT22;60138;55.808;37.078;2023-03-01T04:38:38;-7.21;65.83
70214;DHT22;60138;55.808;37.078;2023-03-01T04:41:07;-7.20;66.29
70214;DHT22;60138;55.808;37.078;2023-03-01T04:43:33;-7.17;65.90
70214;DHT22;60138;55.808;37.078;2023-03-01T04:46:03;-7.17;65.85
70214;DHT22;60138;55.808;37.078;2023-03-01T04:48:30;-7.17;66.01
70214;DHT22;60138;55.808;37.078;2023-03-01T04:50:56;-7.11;65.96
70214;DHT22;60138;55.808;37.078;2023-03-01T04:53:22;-7.08;65.67
70214;DHT22;60138;55.808;37.078;2023-03-01T04:55:47;-7.03;65.62
70214;DHT22;60138;55.808;37.078;2023-03-01T04:58:13;-7.05;65.71
70214;DHT22;60138;55.808;37.078;2023-03-01T05:00:38;-7.00;65.78
70214;DHT22;60138;55.808;37.078;2023-03-01T05:03:04;-6.97;65.68
70214;DHT22;60138;55.808;37.078;2023-03-01T05:05:35;-7.00;65.50
70214;DHT22;60138;55.808;37.078;2023-03-01T05:08:03;-6.96;65.50
70214;DHT22;60138;55.808;37.078;2023-03-01T05:10:31;-7.00;65.59
70214;DHT22;60138;55.808;37.078;2023-03-01T05:12:58;-7.03;65.83
70214;DHT22;60138;55.808;37.078;2023-03-01T05:15:29;-6.93;65.45
70214;DHT22;60138;55.808;37.078;2023-03-01T05:17:58;-6.94;65.24
70214;DHT22;60138;55.808;37.078;2023-03-01T05:20:24;-6.92;65.31
70214;DHT22;60138;55.808;37.078;2023-03-01T05:22:51;-6.92;65.04
70214;DHT22;60138;55.808;37.078;2023-03-01T05:25:17;-6.85;65.10
70214;DHT22;60138;55.808;37.078;2023-03-01T05:27:43;-6.81;65.26
70214;DHT22;60138;55.808;37.078;2023-03-01T05:30:09;-6.76;64.99
70214;DHT22;60138;55.808;37.078;2023-03-01T05:32:35;-6.68;64.99
70214;DHT22;60138;55.808;37.078;2023-03-01T05:35:00;-6.60;64.85
70214;DHT22;60138;55.808;37.078;2023-03-01T05:37:26;-6.55;64.87
70214;DHT22;60138;55.808;37.078;2023-03-01T05:39:52;-6.53;64.60
70214;DHT22;60138;55.808;37.078;2023-03-01T05:42:17;-6.51;64.44
70214;DHT22;60138;55.808;37.078;2023-03-01T05:44:43;-6.50;64.56
70214;DHT22;60138;55.808;37.078;2023-03-01T05:47:09;-6.53;64.37
70214;DHT22;60138;55.808;37.078;2023-03-01T05:49:34;-6.50;64.04
70214;DHT22;60138;55.808;37.078;2023-03-01T05:52:00;-6.47;63.94
70214;DHT22;60138;55.808;37.078;2023-03-01T05:54:26;-6.43;64.18
70214;DHT22;60138;55.808;37.078;2023-03-01T05:56:51;-6.41;64.23
70214;DHT22;60138;55.808;37.078;2023-03-01T05:59:17;-6.37;63.73
70214;DHT22;60138;55.808;37.078;2023-03-01T06:01:42;-6.35;63.47
70214;DHT22;60138;55.808;37.078;2023-03-01T06:04:08;-6.30;63.31
70214;DHT22;60138;55.808;37.078;2023-03-01T06:06:37;-6.24;63.34
70214;DHT22;60138;55.808;37.078;2023-03-01T06:09:04;-6.21;63.23
70214;DHT22;60138;55.808;37.078;2023-03-01T06:11:29;-6.17;63.42
70214;DHT22;60138;55.808;37.078;2023-03-01T06:13:55;-6.16;63.35
70214;DHT22;60138;55.808;37.078;2023-03-01T06:16:22;-6.20;63.12
70214;DHT22;60138;55.808;37.078;2023-03-01T06:18:48;-6.20;63.28
70214;DHT22;60138;55.808;37.078;2023-03-01T06:21:13;-6.23;63.21
70214;DHT22;60138;55.808;37.078;2023-03-01T06:23:39;-6.23;63.58
70214;DHT22;60138;55.808;37.078;2023-03-01T06:26:07;-6.26;64.08
70214;DHT22;60138;55.808;37.078;2023-03-01T06:28:33;-6.29;63.81
70214;DHT22;60138;55.808;37.078;2023-03-01T06:30:58;-6.34;63.65
70214;DHT22;60138;55.808;37.078;2023-03-01T06:33:24;-6.38;63.46
70214;DHT22;60138;55.808;37.078;2023-03-01T06:35:50;-6.32;63.97
70214;DHT22;60138;55.808;37.078;2023-03-01T06:38:16;-6.30;63.71
70214;DHT22;60138;55.808;37.078;2023-03-01T06:40:42;-6.27;63.60
70214;DHT22;60138;55.808;37.078;2023-03-01T06:43:07;-6.23;63.58
70214;DHT22;60138;55.808;37.078;2023-03-01T06:45:33;-6.19;63.51
70214;DHT22;60138;55.808;37.078;2023-03-01T06:48:06;-6.13;63.34
70214;DHT22;60138;55.808;37.078;2023-03-01T06:50:33;-6.07;63.25
70214;DHT22;60138;55.808;37.078;2023-03-01T06:52:59;-6.03;62.97
70214;DHT22;60138;55.808;37.078;2023-03-01T06:55:25;-5.99;62.98
70214;DHT22;60138;55.808;37.078;2023-03-01T06:58:01;-5.92;62.47
70214;DHT22;60138;55.808;37.078;2023-03-01T07:00:28;-5.83;62.80
70214;DHT22;60138;55.808;37.078;2023-03-01T07:02:54;-5.82;62.29
70214;DHT22;60138;55.808;37.078;2023-03-01T07:05:20;-5.73;63.05
70214;DHT22;60138;55.808;37.078;2023-03-01T07:07:46;-5.71;62.30
70214;DHT22;60138;55.808;37.078;2023-03-01T07:10:12;-5.64;62.73
70214;DHT22;60138;55.808;37.078;2023-03-01T07:12:38;-5.63;61.84
70214;DHT22;60138;55.808;37.078;2023-03-01T07:15:04;-5.60;62.08
70214;DHT22;60138;55.808;37.078;2023-03-01T07:17:30;-5.54;61.67
70214;DHT22;60138;55.808;37.078;2023-03-01T07:19:56;-5.46;62.48
70214;DHT22;60138;55.808;37.078;2023-03-01T07:22:22;-5.44;62.00
70214;DHT22;60138;55.808;37.078;2023-03-01T07:24:47;-5.40;61.75
70214;DHT22;60138;55.808;37.078;2023-03-01T07:27:13;-5.33;62.28
70214;DHT22;60138;55.808;37.078;2023-03-01T07:29:39;-5.30;61.80
70214;DHT22;60138;55.808;37.078;2023-03-01T07:32:05;-5.23;62.66
70214;DHT22;60138;55.808;37.078;2023-03-01T07:34:31;-5.15;62.46
70214;DHT22;60138;55.808;37.078;2023-03-01T07:36:57;-5.07;61.77
70214;DHT22;60138;55.808;37.078;2023-03-01T07:39:24;-4.93;61.76
70214;DHT22;60138;55.808;37.078;2023-03-01T07:41:50;-4.81;61.66
70214;DHT22;60138;55.808;37.078;2023-03-01T07:44:20;-4.69;61.33
70214;DHT22;60138;55.808;37.078;2023-03-01T07:46:46;-4.54;62.57
70214;DHT22;60138;55.808;37.078;2023-03-01T07:49:11;-4.42;60.80
70214;DHT22;60138;55.808;37.078;2023-03-01T07:51:37;-4.36;60.41
70214;DHT22;60138;55.808;37.078;2023-03-01T07:54:03;-4.26;60.67
70214;DHT22;60138;55.808;37.078;2023-03-01T07:56:28;-4.14;60.51
70214;DHT22;60138;55.808;37.078;2023-03-01T07:58:54;-4.01;60.31
70214;DHT22;60138;55.808;37.078;2023-03-01T08:01:22;-3.83;59.95
70214;DHT22;60138;55.808;37.078;2023-03-01T08:03:48;-3.78;59.96
70214;DHT22;60138;55.808;37.078;2023-03-01T08:06:16;-3.85;60.69
70214;DHT22;60138;55.808;37.078;2023-03-01T08:08:42;-4.05;60.27
70214;DHT22;60138;55.808;37.078;2023-03-01T08:11:10;-4.22;60.96
70214;DHT22;60138;55.808;37.078;2023-03-01T08:13:36;-4.25;61.26
70214;DHT22;60138;55.808;37.078;2023-03-01T08:16:07;-4.32;61.17
70214;DHT22;60138;55.808;37.078;2023-03-01T08:18:33;-4.37;61.76
70214;DHT22;60138;55.808;37.078;2023-03-01T08:21:13;-4.38;61.97
70214;DHT22;60138;55.808;37.078;2023-03-01T08:23:39;-4.42;61.87
70214;DHT22;60138;55.808;37.078;2023-03-01T08:26:11;-4.48;61.97
70214;DHT22;60138;55.808;37.078;2023-03-01T08:28:37;-4.40;62.20
70214;DHT22;60138;55.808;37.078;2023-03-01T08:31:12;-4.39;62.21
70214;DHT22;60138;55.808;37.078;2023-03-01T08:33:38;-4.34;62.74
70214;DHT22;60138;55.808;37.078;2023-03-01T08:36:05;-4.30;62.61
70214;DHT22;60138;55.808;37.078;2023-03-01T08:38:31;-4.21;62.97
70214;DHT22;60138;55.808;37.078;2023-03-01T08:40:59;-4.19;62.56
70214;DHT22;60138;55.808;37.078;2023-03-01T08:43:25;-4.09;62.73
70214;DHT22;60138;55.808;37.078;2023-03-01T08:45:51;-3.97;62.50
70214;DHT22;60138;55.808;37.078;2023-03-01T08:48:16;-3.84;61.57
70214;DHT22;60138;55.808;37.078;2023-03-01T08:50:42;-3.65;61.92
70214;DHT22;60138;55.808;37.078;2023-03-01T08:53:08;-3.58;61.41
70214;DHT22;60138;55.808;37.078;2023-03-01T08:55:33;-3.39;62.52
70214;DHT22;60138;55.808;37.078;2023-03-01T08:57:59;-3.18;61.92
70214;DHT22;60138;55.808;37.078;2023-03-01T09:00:24;-3.13;61.48
70214;DHT22;60138;55.808;37.078;2023-03-01T09:02:50;-3.17;59.98
70214;DHT22;60138;55.808;37.078;2023-03-01T09:05:16;-3.18;59.99
70214;DHT22;60138;55.808;37.078;2023-03-01T09:07:42;-3.17;60.08
70214;DHT22;60138;55.808;37.078;2023-03-01T09:10:08;-3.19;59.50
70214;DHT22;60138;55.808;37.078;2023-03-01T09:12:34;-3.35;60.61
70214;DHT22;60138;55.808;37.078;2023-03-01T09:14:59;-3.43;60.34
70214;DHT22;60138;55.808;37.078;2023-03-01T09:17:25;-3.35;60.18
70214;DHT22;60138;55.808;37.078;2023-03-01T09:19:51;-3.16;61.15
70214;DHT22;60138;55.808;37.078;2023-03-01T09:22:16;-3.11;60.31
70214;DHT22;60138;55.808;37.078;2023-03-01T09:24:42;-3.24;59.00
70214;DHT22;60138;55.808;37.078;2023-03-01T09:27:08;-2.97;60.94
70214;DHT22;60138;55.808;37.078;2023-03-01T09:29:35;-2.83;59.67
70214;DHT22;60138;55.808;37.078;2023-03-01T09:32:00;-2.84;58.91
70214;DHT22;60138;55.808;37.078;2023-03-01T09:34:26;-2.80;58.64
70214;DHT22;60138;55.808;37.078;2023-03-01T09:36:52;-2.77;59.70
70214;DHT22;60138;55.808;37.078;2023-03-01T09:39:18;-2.86;58.03
70214;DHT22;60138;55.808;37.078;2023-03-01T09:42:00;-2.90;57.20
70214;DHT22;60138;55.808;37.078;2023-03-01T09:46:59;-2.60;57.33
70214;DHT22;60138;55.808;37.078;2023-03-01T09:49:28;-2.53;56.68
70214;DHT22;60138;55.808;37.078;2023-03-01T09:51:58;-2.51;56.29
70214;DHT22;60138;55.808;37.078;2023-03-01T09:54:24;-2.51;58.53
70214;DHT22;60138;55.808;37.078;2023-03-01T09:57:07;-2.36;58.63
70214;DHT22;60138;55.808;37.078;2023-03-01T10:02:46;-2.31;56.84
70214;DHT22;60138;55.808;37.078;2023-03-01T10:10:43;-2.14;59.17
70214;DHT22;60138;55.808;37.078;2023-03-01T10:13:37;-2.06;56.54
70214;DHT22;60138;55.808;37.078;2023-03-01T10:16:22;-2.01;56.12
70214;DHT22;60138;55.808;37.078;2023-03-01T10:18:58;-1.91;56.11
70214;DHT22;60138;55.808;37.078;2023-03-01T10:21:26;-1.60;57.75
70214;DHT22;60138;55.808;37.078;2023-03-01T10:23:53;-1.54;55.10
70214;DHT22;60138;55.808;37.078;2023-03-01T10:29:05;-1.52;56.12
70214;DHT22;60138;55.808;37.078;2023-03-01T10:31:52;-1.59;55.19
70214;DHT22;60138;55.808;37.078;2023-03-01T10:34:27;-1.41;56.84
70214;DHT22;60138;55.808;37.078;2023-03-01T10:36:57;-1.64;53.46
70214;DHT22;60138;55.808;37.078;2023-03-01T10:39:25;-1.70;54.71
70214;DHT22;60138;55.808;37.078;2023-03-01T10:41:57;-1.97;53.49
70214;DHT22;60138;55.808;37.078;2023-03-01T10:44:46;-2.15;53.93
70214;DHT22;60138;55.808;37.078;2023-03-01T10:47:31;-2.15;55.68
70214;DHT22;60138;55.808;37.078;2023-03-01T10:50:19;-2.05;54.73
70214;DHT22;60138;55.808;37.078;2023-03-01T10:53:02;-1.91;55.85
70214;DHT22;60138;55.808;37.078;2023-03-01T10:58:21;-2.08;53.04
70214;DHT22;60138;55.808;37.078;2023-03-01T11:03:24;-1.62;56.55
70214;DHT22;60138;55.808;37.078;2023-03-01T11:05:56;-1.60;54.62
70214;DHT22;60138;55.808;37.078;2023-03-01T11:08:43;-1.60;52.60
70214;DHT22;60138;55.808;37.078;2023-03-01T11:11:20;-1.53;54.30
70214;DHT22;60138;55.808;37.078;2023-03-01T11:13:58;-1.41;51.43
70214;DHT22;60138;55.808;37.078;2023-03-01T11:16:33;-1.19;57.32
70214;DHT22;60138;55.808;37.078;2023-03-01T11:24:26;-1.06;53.26
70214;DHT22;60138;55.808;37.078;2023-03-01T11:26:54;-1.10;52.13
70214;DHT22;60138;55.808;37.078;2023-03-01T11:32:02;-0.74;52.59
70214;DHT22;60138;55.808;37.078;2023-03-01T11:37:15;-0.61;53.64
70214;DHT22;60138;55.808;37.078;2023-03-01T11:39:54;-0.69;52.82
70214;DHT22;60138;55.808;37.078;2023-03-01T11:45:08;-1.14;49.84
70214;DHT22;60138;55.808;37.078;2023-03-01T11:50:53;-1.08;51.21
70214;DHT22;60138;55.808;37.078;2023-03-01T11:56:20;-0.87;52.24
70214;DHT22;60138;55.808;37.078;2023-03-01T12:07:01;-0.52;50.47
70214;DHT22;60138;55.808;37.078;2023-03-01T12:12:35;-0.61;51.43
70214;DHT22;60138;55.808;37.078;2023-03-01T12:17:58;-0.95;53.84
70214;DHT22;60138;55.808;37.078;2023-03-01T12:37:39;-1.30;52.30
70214;DHT22;60138;55.808;37.078;2023-03-01T12:42:46;-1.40;54.24
70214;DHT22;60138;55.808;37.078;2023-03-01T12:51:07;-1.63;53.83
70214;DHT22;60138;55.808;37.078;2023-03-01T12:53:45;-1.62;55.55
70214;DHT22;60138;55.808;37.078;2023-03-01T12:56:15;-1.73;53.04
70214;DHT22;60138;55.808;37.078;2023-03-01T12:59:11;-1.70;55.39
70214;DHT22;60138;55.808;37.078;2023-03-01T13:17:54;-1.87;55.13
70214;DHT22;60138;55.808;37.078;2023-03-01T13:20:31;-1.95;53.81
70214;DHT22;60138;55.808;37.078;2023-03-01T13:25:29;-1.82;54.73
70214;DHT22;60138;55.808;37.078;2023-03-01T13:28:37;-1.78;55.96
70214;DHT22;60138;55.808;37.078;2023-03-01T13:31:03;-1.84;54.83
70214;DHT22;60138;55.808;37.078;2023-03-01T13:35:56;-1.88;55.78
70214;DHT22;60138;55.808;37.078;2023-03-01T13:41:10;-1.75;56.15
70214;DHT22;60138;55.808;37.078;2023-03-01T13:43:38;-1.83;53.76
70214;DHT22;60138;55.808;37.078;2023-03-01T13:46:23;-1.87;54.10
70214;DHT22;60138;55.808;37.078;2023-03-01T13:48:51;-1.88;54.08
70214;DHT22;60138;55.808;37.078;2023-03-01T13:51:23;-1.88;55.55
70214;DHT22;60138;55.808;37.078;2023-03-01T13:53:50;-1.92;55.13
70214;DHT22;60138;55.808;37.078;2023-03-01T13:56:21;-1.97;54.77
70214;DHT22;60138;55.808;37.078;2023-03-01T13:58:53;-2.03;55.32
70214;DHT22;60138;55.808;37.078;2023-03-01T14:01:32;-2.10;54.91
70214;DHT22;60138;55.808;37.078;2023-03-01T14:03:59;-2.14;55.79
70214;DHT22;60138;55.808;37.078;2023-03-01T14:06:30;-2.15;56.01
70214;DHT22;60138;55.808;37.078;2023-03-01T14:09:16;-2.15;56.36
70214;DHT22;60138;55.808;37.078;2023-03-01T14:19:31;-2.22;56.68
70214;DHT22;60138;55.808;37.078;2023-03-01T14:22:05;-2.21;56.90
70214;DHT22;60138;55.808;37.078;2023-03-01T14:24:40;-2.26;57.00
70214;DHT22;60138;55.808;37.078;2023-03-01T14:27:13;-2.26;57.61
70214;DHT22;60138;55.808;37.078;2023-03-01T14:29:40;-2.28;58.03
70214;DHT22;60138;55.808;37.078;2023-03-01T14:32:26;-2.32;58.14
70214;DHT22;60138;55.808;37.078;2023-03-01T14:34:52;-2.32;58.70
70214;DHT22;60138;55.808;37.078;2023-03-01T14:39:44;-2.41;60.51
70214;DHT22;60138;55.808;37.078;2023-03-01T14:42:09;-2.51;63.89
70214;DHT22;60138;55.808;37.078;2023-03-01T14:44:35;-2.63;62.68
70214;DHT22;60138;55.808;37.078;2023-03-01T14:47:01;-2.67;63.42
70214;DHT22;60138;55.808;37.078;2023-03-01T14:49:29;-2.68;61.21
70214;DHT22;60138;55.808;37.078;2023-03-01T14:51:59;-2.61;60.62
70214;DHT22;60138;55.808;37.078;2023-03-01T14:54:28;-2.63;60.05
70214;DHT22;60138;55.808;37.078;2023-03-01T14:57:01;-2.65;60.25
70214;DHT22;60138;55.808;37.078;2023-03-01T14:59:28;-2.65;59.94
70214;DHT22;60138;55.808;37.078;2023-03-01T15:01:57;-2.65;58.64
70214;DHT22;60138;55.808;37.078;2023-03-01T15:04:23;-2.63;59.25
70214;DHT22;60138;55.808;37.078;2023-03-01T15:06:54;-2.60;58.81
70214;DHT22;60138;55.808;37.078;2023-03-01T15:09:21;-2.59;58.26
70214;DHT22;60138;55.808;37.078;2023-03-01T15:11:47;-2.59;59.03
70214;DHT22;60138;55.808;37.078;2023-03-01T15:14:42;-2.64;56.47
70214;DHT22;60138;55.808;37.078;2023-03-01T15:17:35;-2.65;57.59
70214;DHT22;60138;55.808;37.078;2023-03-01T15:20:04;-2.64;58.49
70214;DHT22;60138;55.808;37.078;2023-03-01T15:22:31;-2.72;57.26
70214;DHT22;60138;55.808;37.078;2023-03-01T15:24:57;-2.74;57.77
70214;DHT22;60138;55.808;37.078;2023-03-01T15:27:24;-2.74;58.22
70214;DHT22;60138;55.808;37.078;2023-03-01T15:29:55;-2.72;58.46
70214;DHT22;60138;55.808;37.078;2023-03-01T15:34:50;-2.74;58.01
70214;DHT22;60138;55.808;37.078;2023-03-01T15:42:46;-2.77;57.75
70214;DHT22;60138;55.808;37.078;2023-03-01T15:47:45;-2.67;59.21
70214;DHT22;60138;55.808;37.078;2023-03-01T15:50:19;-2.68;59.03
70214;DHT22;60138;55.808;37.078;2023-03-01T15:52:46;-2.77;60.83
70214;DHT22;60138;55.808;37.078;2023-03-01T15:55:26;-2.79;59.46
70214;DHT22;60138;55.808;37.078;2023-03-01T15:58:05;-2.76;59.42
70214;DHT22;60138;55.808;37.078;2023-03-01T16:00:32;-2.77;58.61
70214;DHT22;60138;55.808;37.078;2023-03-01T16:02:57;-2.82;58.64
70214;DHT22;60138;55.808;37.078;2023-03-01T16:05:27;-2.78;59.00
70214;DHT22;60138;55.808;37.078;2023-03-01T16:07:54;-2.76;58.97
70214;DHT22;60138;55.808;37.078;2023-03-01T16:10:20;-2.81;58.03
70214;DHT22;60138;55.808;37.078;2023-03-01T16:12:46;-2.71;59.22
70214;DHT22;60138;55.808;37.078;2023-03-01T16:15:23;-2.73;58.90
70214;DHT22;60138;55.808;37.078;2023-03-01T16:17:50;-2.75;59.30
70214;DHT22;60138;55.808;37.078;2023-03-01T16:20:22;-2.68;59.74
70214;DHT22;60138;55.808;37.078;2023-03-01T16:22:48;-2.71;59.23
70214;DHT22;60138;55.808;37.078;2023-03-01T16:25:16;-2.68;58.88
70214;DHT22;60138;55.808;37.078;2023-03-01T16:27:43;-2.69;59.09
70214;DHT22;60138;55.808;37.078;2023-03-01T16:30:09;-2.71;58.51
70214;DHT22;60138;55.808;37.078;2023-03-01T16:32:39;-2.72;58.84
70214;DHT22;60138;55.808;37.078;2023-03-01T16:35:07;-2.75;58.32
70214;DHT22;60138;55.808;37.078;2023-03-01T16:37:33;-2.71;59.24
70214;DHT22;60138;55.808;37.078;2023-03-01T16:40:00;-2.75;59.12
70214;DHT22;60138;55.808;37.078;2023-03-01T16:42:25;-2.74;58.79
70214;DHT22;60138;55.808;37.078;2023-03-01T16:44:56;-2.74;58.72
70214;DHT22;60138;55.808;37.078;2023-03-01T16:47:22;-2.71;59.23
70214;DHT22;60138;55.808;37.078;2023-03-01T16:49:51;-2.71;59.48
70214;DHT22;60138;55.808;37.078;2023-03-01T16:52:17;-2.71;59.91
70214;DHT22;60138;55.808;37.078;2023-03-01T16:54:43;-2.74;60.25
70214;DHT22;60138;55.808;37.078;2023-03-01T16:57:08;-2.75;60.33
70214;DHT22;60138;55.808;37.078;2023-03-01T16:59:34;-2.82;61.08
70214;DHT22;60138;55.808;37.078;2023-03-01T17:02:00;-2.79;60.67
70214;DHT22;60138;55.808;37.078;2023-03-01T17:04:25;-2.78;61.41
70214;DHT22;60138;55.808;37.078;2023-03-01T17:06:51;-2.77;60.88
70214;DHT22;60138;55.808;37.078;2023-03-01T17:09:17;-2.79;61.12
70214;DHT22;60138;55.808;37.078;2023-03-01T17:11:43;-2.82;61.39
70214;DHT22;60138;55.808;37.078;2023-03-01T17:14:08;-2.80;61.32
70214;DHT22;60138;55.808;37.078;2023-03-01T17:16:34;-2.81;61.50
70214;DHT22;60138;55.808;37.078;2023-03-01T17:19:00;-2.82;62.09
70214;DHT22;60138;55.808;37.078;2023-03-01T17:21:26;-2.84;61.99
70214;DHT22;60138;55.808;37.078;2023-03-01T17:23:55;-2.86;62.00
70214;DHT22;60138;55.808;37.078;2023-03-01T17:26:21;-2.84;61.75
70214;DHT22;60138;55.808;37.078;2023-03-01T17:28:46;-2.83;61.70
70214;DHT22;60138;55.808;37.078;2023-03-01T17:31:12;-2.84;62.02
70214;DHT22;60138;55.808;37.078;2023-03-01T17:33:38;-2.87;62.30
70214;DHT22;60138;55.808;37.078;2023-03-01T17:36:04;-2.89;62.18
70214;DHT22;60138;55.808;37.078;2023-03-01T17:38:29;-2.92;63.34